Time;durP1;ratioP1;P1;durP2;ratioP2;P2;SDS_P1;SDS_P2;PMS_P1;PMS_P2;Temp;Humidity;BMP_temperature;BMP_pressure;BME280_temperature;BME280_humidity;BME280_pressure;Samples;Min_cycle;Max_cycle;Signal;HPM_P1;HPM_P2
2022/11/11 00:00:31;;;;;;;17.08;8.80;;;11.10;99.90;;;;;;5024108;28;20046;-68
2022/11/11 00:02:57;;;;;;;19.42;8.73;;;11.10;99.90;;;;;;5023364;28;20056;-68
2022/11/11 00:05:24;;;;;;;13.80;8.23;;;11.00;99.90;;;;;;5042657;28;20045;-68
2022/11/11 00:07:52;;;;;;;17.02;8.63;;;11.00;99.90;;;;;;5041232;28;20137;-68
2022/11/11 00:10:18;;;;;;;12.93;7.75;;;11.20;99.90;;;;;;5024325;28;20046;-68
2022/11/11 00:12:43;;;;;;;19.02;9.57;;;11.20;99.90;;;;;;5023766;28;20107;-68
2022/11/11 00:15:09;;;;;;;16.58;8.80;;;11.20;99.90;;;;;;5026815;28;20041;-68
2022/11/11 00:25:52;;;;;;;16.88;10.07;;;11.20;99.90;;;;;;5021960;28;20514;-68
2022/11/11 00:28:19;;;;;;;17.48;8.18;;;11.30;99.90;;;;;;5049322;28;20065;-69
2022/11/11 00:30:44;;;;;;;20.90;9.45;;;11.40;99.90;;;;;;5020869;28;20052;-68
2022/11/11 00:33:11;;;;;;;17.90;10.32;;;11.20;99.90;;;;;;5017673;28;20105;-68
2022/11/11 00:35:55;;;;;;;17.23;10.20;;;11.30;99.90;;;;;;5020943;28;20057;-68
2022/11/11 00:41:05;;;;;;;16.30;9.00;;;11.30;99.90;;;;;;5007789;28;20117;-68
2022/11/11 00:43:30;;;;;;;20.45;9.75;;;11.30;99.90;;;;;;5020193;28;20129;-68
2022/11/11 00:50:57;;;;;;;18.48;10.63;;;11.40;99.90;;;;;;5057903;28;20046;-69
2022/11/11 00:51:26;;;;;;;17.70;10.20;;;11.30;99.90;;;;;;5019820;28;20108;-68
2022/11/11 00:53:52;;;;;;;19.73;10.10;;;11.30;99.90;;;;;;5006404;28;20058;-68
2022/11/11 00:56:18;;;;;;;15.73;10.63;;;11.20;99.90;;;;;;5005929;28;20057;-68
2022/11/11 00:58:44;;;;;;;20.00;10.55;;;11.30;99.90;;;;;;5005184;28;20486;-68
2022/11/11 01:01:09;;;;;;;19.83;9.57;;;11.30;99.90;;;;;;5022072;28;20042;-69
2022/11/11 01:03:35;;;;;;;14.48;10.07;;;11.40;99.90;;;;;;5008234;28;20053;-68
2022/11/11 01:06:02;;;;;;;16.08;9.85;;;11.40;99.90;;;;;;5004961;28;20058;-69
2022/11/11 01:08:28;;;;;;;19.48;10.38;;;11.30;99.90;;;;;;5008509;28;20061;-69
2022/11/11 01:10:54;;;;;;;17.00;9.65;;;11.30;99.90;;;;;;5009748;28;20046;-68
2022/11/11 01:13:31;;;;;;;15.90;9.95;;;11.40;99.90;;;;;;5014359;28;20057;-68
2022/11/11 01:16:19;;;;;;;21.52;11.65;;;11.30;99.90;;;;;;5023803;28;20057;-69
2022/11/11 01:18:45;;;;;;;17.83;10.13;;;11.30;99.90;;;;;;5020030;28;20057;-68
2022/11/11 01:21:13;;;;;;;17.88;10.43;;;11.40;99.90;;;;;;5023672;28;20402;-68
2022/11/11 01:23:40;;;;;;;15.75;10.15;;;11.30;99.90;;;;;;5023957;28;20135;-70
2022/11/11 01:26:18;;;;;;;20.15;10.88;;;11.30;99.90;;;;;;5004105;28;20050;-69
2022/11/11 01:28:47;;;;;;;20.00;10.45;;;11.30;99.90;;;;;;5037952;28;20066;-68
2022/11/11 01:31:15;;;;;;;19.33;12.55;;;11.30;99.90;;;;;;5017745;28;20061;-68
2022/11/11 01:33:40;;;;;;;12.52;10.20;;;11.20;99.90;;;;;;5005686;28;20058;-69
2022/11/11 01:36:16;;;;;;;19.65;10.63;;;11.10;99.90;;;;;;5017370;28;20065;-68
2022/11/11 01:38:42;;;;;;;17.63;11.30;;;11.10;99.90;;;;;;5006301;28;20066;-68
2022/11/11 01:43:56;;;;;;;21.55;11.18;;;11.20;99.90;;;;;;5005812;28;20121;-68
2022/11/11 01:46:36;;;;;;;20.92;12.32;;;11.20;99.90;;;;;;5004920;28;20133;-68
2022/11/11 01:49:32;;;;;;;17.77;12.70;;;11.10;99.90;;;;;;4988619;28;20050;-68
2022/11/11 01:52:05;;;;;;;17.55;12.00;;;11.10;99.90;;;;;;5004365;28;20054;-68
2022/11/11 01:54:45;;;;;;;18.42;12.63;;;11.00;99.90;;;;;;5037229;28;20078;-68
2022/11/11 01:57:23;;;;;;;20.05;12.27;;;10.90;99.90;;;;;;5004396;28;20081;-68
2022/11/11 01:59:59;;;;;;;25.48;13.18;;;10.90;99.90;;;;;;5004262;28;20046;-68
2022/11/11 02:02:45;;;;;;;21.73;13.80;;;10.90;99.90;;;;;;5008772;28;20042;-68
2022/11/11 02:08:03;;;;;;;22.45;13.30;;;10.80;99.90;;;;;;5010049;28;20050;-68
2022/11/11 02:10:32;;;;;;;21.33;13.63;;;10.60;99.90;;;;;;5016772;28;20125;-68
2022/11/11 02:15:43;;;;;;;25.67;14.75;;;10.60;99.90;;;;;;5023997;28;20108;-68
2022/11/11 02:18:09;;;;;;;23.42;14.93;;;10.60;99.90;;;;;;5009088;28;20073;-68
2022/11/11 02:20:38;;;;;;;23.20;14.45;;;10.60;99.90;;;;;;5006487;28;20483;-68
2022/11/11 02:23:41;;;;;;;24.33;14.20;;;10.50;99.90;;;;;;5023252;28;20057;-68
2022/11/11 02:26:09;;;;;;;26.33;15.20;;;10.50;99.90;;;;;;4983314;28;20054;-68
2022/11/11 02:28:36;;;;;;;24.60;15.68;;;10.30;99.90;;;;;;4967260;28;20170;-68
2022/11/11 02:31:02;;;;;;;29.33;15.45;;;10.40;99.90;;;;;;4983526;28;20081;-69
2022/11/11 02:33:28;;;;;;;25.98;16.83;;;10.30;99.90;;;;;;4983394;28;20115;-68
2022/11/11 02:35:57;;;;;;;21.00;14.98;;;10.30;99.90;;;;;;4970038;28;20061;-68
2022/11/11 02:38:27;;;;;;;25.13;16.00;;;10.10;99.90;;;;;;4987019;28;20107;-68
2022/11/11 02:43:37;;;;;;;24.33;16.83;;;10.10;99.90;;;;;;4969153;28;19930;-68
2022/11/11 02:46:05;;;;;;;24.10;17.60;;;10.10;99.90;;;;;;4970693;28;20047;-68
2022/11/11 02:48:31;;;;;;;25.52;19.10;;;10.10;99.90;;;;;;5003451;28;20523;-68
2022/11/11 02:50:57;;;;;;;31.25;19.88;;;10.20;99.90;;;;;;4969580;28;20063;-68
2022/11/11 02:53:23;;;;;;;29.13;19.60;;;10.20;99.90;;;;;;5003002;28;20188;-68
2022/11/11 02:55:49;;;;;;;32.03;19.30;;;10.20;99.90;;;;;;4970204;28;20059;-68
2022/11/11 02:58:15;;;;;;;30.40;20.23;;;10.20;99.90;;;;;;5003012;28;20066;-68
2022/11/11 03:00:41;;;;;;;29.13;19.77;;;10.20;99.90;;;;;;4974720;28;20047;-68
2022/11/11 03:03:08;;;;;;;27.77;19.98;;;10.30;99.90;;;;;;5026933;28;20050;-68
2022/11/11 03:05:34;;;;;;;39.10;21.35;;;10.20;99.90;;;;;;5025337;28;20046;-68
2022/11/11 03:08:00;;;;;;;29.20;20.45;;;10.30;99.90;;;;;;5027003;28;20046;-68
2022/11/11 03:10:26;;;;;;;28.35;19.73;;;10.40;99.90;;;;;;5025598;28;20046;-68
2022/11/11 03:12:51;;;;;;;32.28;20.85;;;10.40;99.90;;;;;;5026615;28;20105;-68
2022/11/11 03:15:17;;;;;;;31.52;20.60;;;10.30;99.90;;;;;;5009541;28;20048;-68
2022/11/11 03:17:43;;;;;;;35.63;21.63;;;10.30;99.90;;;;;;5027890;28;20101;-68
2022/11/11 03:23:04;;;;;;;36.08;20.95;;;10.40;99.90;;;;;;5026331;28;20053;-68
2022/11/11 03:25:39;;;;;;;38.03;22.67;;;10.30;99.90;;;;;;5022285;28;20065;-68
2022/11/11 03:28:11;;;;;;;33.65;21.80;;;10.30;99.90;;;;;;5006397;28;20042;-69
2022/11/11 03:30:40;;;;;;;29.17;20.80;;;10.30;99.90;;;;;;5006799;28;20054;-68
2022/11/11 03:33:06;;;;;;;37.05;21.60;;;10.30;99.90;;;;;;5039621;28;20550;-68
2022/11/11 03:35:32;;;;;;;33.67;21.73;;;10.20;99.90;;;;;;5007953;28;20050;-68
2022/11/11 03:40:43;;;;;;;40.03;24.80;;;10.10;99.90;;;;;;5011852;28;20038;-68
2022/11/11 03:43:10;;;;;;;35.65;23.83;;;10.20;99.90;;;;;;5011057;28;20518;-68
2022/11/11 03:45:36;;;;;;;33.63;22.05;;;10.10;99.90;;;;;;5008227;28;20047;-68
2022/11/11 03:48:01;;;;;;;37.10;25.33;;;10.20;99.90;;;;;;5016798;28;20133;-68
2022/11/11 03:50:27;;;;;;;37.28;23.67;;;10.20;99.90;;;;;;5019571;28;20050;-68
2022/11/11 03:52:52;;;;;;;34.35;24.02;;;10.20;99.90;;;;;;5017790;28;20049;-68
2022/11/11 03:55:18;;;;;;;39.10;24.42;;;10.20;99.90;;;;;;5025903;28;20053;-68
2022/11/11 03:57:45;;;;;;;39.85;24.23;;;10.20;99.90;;;;;;5016583;28;20046;-68
2022/11/11 04:00:20;;;;;;;37.03;21.70;;;10.30;99.90;;;;;;5012563;28;20046;-68
2022/11/11 04:11:13;;;;;;;36.47;24.55;;;10.40;99.90;;;;;;5022104;28;20077;-68
2022/11/11 04:16:26;;;;;;;40.80;23.85;;;10.40;99.90;;;;;;5034860;28;20110;-68
2022/11/11 04:21:44;;;;;;;36.47;24.05;;;10.40;99.90;;;;;;5020231;28;20434;-68
2022/11/11 04:27:04;;;;;;;39.97;25.40;;;10.50;99.90;;;;;;5012510;28;20053;-68
2022/11/11 04:29:30;;;;;;;35.15;23.85;;;10.50;99.90;;;;;;5049382;28;20050;-68
2022/11/11 04:34:47;;;;;;;36.90;26.00;;;10.50;99.90;;;;;;5031003;28;20536;-68
2022/11/11 04:37:14;;;;;;;36.05;24.50;;;10.50;99.90;;;;;;5019305;28;20058;-68
2022/11/11 04:42:25;;;;;;;39.25;24.38;;;10.50;99.90;;;;;;5028568;28;20061;-68
2022/11/11 04:47:35;;;;;;;39.83;25.35;;;10.60;99.90;;;;;;5007448;28;20102;-68
2022/11/11 04:50:01;;;;;;;38.13;26.13;;;10.70;99.90;;;;;;5011220;28;20057;-68
2022/11/11 04:52:27;;;;;;;38.70;25.33;;;10.60;99.90;;;;;;5015182;28;20042;-68
2022/11/11 04:57:44;;;;;;;42.22;25.58;;;10.60;99.90;;;;;;5017791;28;20065;-68
2022/11/11 05:00:12;;;;;;;41.13;26.90;;;10.70;99.90;;;;;;5006987;28;20061;-68
2022/11/11 05:05:23;;;;;;;39.90;25.60;;;10.70;99.90;;;;;;5015278;28;20057;-68
2022/11/11 05:10:34;;;;;;;37.80;25.08;;;10.70;99.90;;;;;;5017059;28;20061;-68
2022/11/11 05:21:21;;;;;;;39.53;25.23;;;10.80;99.90;;;;;;5018737;28;20057;-68
2022/11/11 05:26:31;;;;;;;41.30;25.42;;;10.80;99.90;;;;;;5011865;28;20061;-68
2022/11/11 05:28:57;;;;;;;42.35;24.13;;;10.80;99.90;;;;;;5013339;28;20053;-68
2022/11/11 05:31:23;;;;;;;37.17;25.23;;;10.80;99.90;;;;;;5010532;28;20058;-68
2022/11/11 05:33:48;;;;;;;38.00;25.05;;;10.80;99.90;;;;;;5012601;28;20061;-68
2022/11/11 05:36:14;;;;;;;38.97;25.63;;;10.80;99.90;;;;;;5025142;28;20101;-68
2022/11/11 05:38:40;;;;;;;37.15;24.25;;;10.70;99.90;;;;;;5014802;28;20053;-68
2022/11/11 05:41:07;;;;;;;38.88;25.13;;;10.70;99.90;;;;;;5015958;28;20125;-68
2022/11/11 05:43:32;;;;;;;38.40;25.35;;;10.70;99.90;;;;;;5022861;28;20053;-68
2022/11/11 05:45:58;;;;;;;38.92;25.60;;;10.70;99.90;;;;;;5008593;28;20047;-68
2022/11/11 05:48:24;;;;;;;39.50;25.25;;;10.80;99.90;;;;;;5014796;28;20096;-68
2022/11/11 05:50:49;;;;;;;40.35;24.40;;;10.70;99.90;;;;;;5032479;28;20050;-68
2022/11/11 05:53:15;;;;;;;35.55;23.45;;;10.70;99.90;;;;;;5024009;28;20124;-68
2022/11/11 05:55:41;;;;;;;36.75;23.65;;;10.70;99.90;;;;;;5008428;28;20046;-68
2022/11/11 05:58:06;;;;;;;40.85;23.70;;;10.80;99.90;;;;;;5023794;28;20042;-68
2022/11/11 06:00:32;;;;;;;35.55;24.23;;;10.80;99.90;;;;;;5015808;28;20050;-68
2022/11/11 06:03:03;;;;;;;36.28;23.10;;;10.80;99.90;;;;;;5022167;28;20165;-68
2022/11/11 06:05:28;;;;;;;37.78;23.52;;;10.70;99.90;;;;;;5014642;28;20395;-68
2022/11/11 06:07:59;;;;;;;33.28;23.52;;;10.80;99.90;;;;;;5037131;28;20053;-69
2022/11/11 06:10:31;;;;;;;33.45;23.40;;;10.80;99.90;;;;;;5034496;28;20052;-68
2022/11/11 06:13:09;;;;;;;34.22;22.77;;;10.70;99.90;;;;;;5022874;28;20053;-69
2022/11/11 06:15:38;;;;;;;39.33;23.20;;;10.80;99.90;;;;;;5025716;28;20081;-68
2022/11/11 06:18:05;;;;;;;42.08;24.35;;;10.80;99.90;;;;;;5025059;28;20049;-68
2022/11/11 06:20:34;;;;;;;35.38;24.73;;;10.80;99.90;;;;;;5010438;28;20100;-69
2022/11/11 06:23:00;;;;;;;41.83;25.08;;;10.80;99.90;;;;;;5061910;28;20621;-70
2022/11/11 06:28:14;;;;;;;35.28;22.73;;;10.70;99.90;;;;;;5052028;28;20139;-69
2022/11/11 06:30:40;;;;;;;34.95;22.88;;;10.80;99.90;;;;;;5041530;28;20129;-70
2022/11/11 06:33:06;;;;;;;36.05;24.23;;;10.80;99.90;;;;;;5040623;28;20178;-69
2022/11/11 06:35:36;;;;;;;39.88;24.65;;;10.80;99.90;;;;;;5033496;28;20041;-70
2022/11/11 06:38:03;;;;;;;;;;;10.80;99.90;;;;;;5028105;28;20611;-71
2022/11/11 06:40:29;;;;;;;32.30;21.30;;;10.80;99.90;;;;;;5023610;28;20539;-69
2022/11/11 06:42:56;;;;;;;32.97;22.92;;;10.80;99.90;;;;;;5028703;28;20080;-70
2022/11/11 06:45:27;;;;;;;33.08;22.35;;;10.80;99.90;;;;;;5033040;28;20041;-70
2022/11/11 06:47:53;;;;;;;35.08;22.40;;;10.70;99.90;;;;;;5029594;28;20322;-70
2022/11/11 06:50:19;;;;;;;34.35;22.88;;;10.80;99.90;;;;;;5033470;28;20375;-70
2022/11/11 06:52:45;;;;;;;40.03;23.02;;;10.80;99.90;;;;;;5025746;28;20064;-70
2022/11/11 06:55:11;;;;;;;38.88;22.45;;;10.90;99.90;;;;;;5018312;28;20045;-70
2022/11/11 06:57:37;;;;;;;33.08;21.92;;;10.80;99.90;;;;;;5032160;28;20057;-71
2022/11/11 07:00:05;;;;;;;33.03;21.70;;;10.80;99.90;;;;;;5033771;28;20053;-72
2022/11/11 07:02:31;;;;;;;36.60;22.83;;;10.80;99.90;;;;;;5029850;28;20056;-71
2022/11/11 07:04:57;;;;;;;35.20;21.80;;;10.90;99.90;;;;;;5038029;28;20292;-71
2022/11/11 07:07:23;;;;;;;38.47;23.50;;;10.90;99.90;;;;;;5010890;28;20053;-70
2022/11/11 07:09:49;;;;;;;34.67;22.65;;;10.90;99.90;;;;;;5038509;28;20077;-70
2022/11/11 07:12:15;;;;;;;31.52;22.02;;;10.90;99.90;;;;;;5039760;28;20048;-70
2022/11/11 07:14:40;;;;;;;28.90;21.33;;;10.90;99.90;;;;;;5040827;28;20033;-70
2022/11/11 07:17:06;;;;;;;32.55;20.38;;;11.00;99.90;;;;;;5048707;28;20052;-70
2022/11/11 07:19:32;;;;;;;30.67;19.77;;;11.00;99.90;;;;;;5036368;28;20057;-71
2022/11/11 07:21:57;;;;;;;32.70;20.15;;;10.90;99.90;;;;;;5052725;28;20052;-70
2022/11/11 07:24:23;;;;;;;32.60;20.92;;;10.90;99.90;;;;;;5060466;28;20140;-69
2022/11/11 07:26:49;;;;;;;32.03;20.95;;;10.90;99.90;;;;;;5037422;28;20049;-70
2022/11/11 07:29:15;;;;;;;34.55;21.05;;;10.90;99.90;;;;;;5051151;28;20065;-68
2022/11/11 07:31:41;;;;;;;31.83;19.98;;;10.90;99.90;;;;;;5046372;28;20049;-68
2022/11/11 07:34:07;;;;;;;32.92;21.08;;;10.90;99.90;;;;;;5052506;28;20449;-70
2022/11/11 07:36:33;;;;;;;34.97;21.60;;;10.90;99.90;;;;;;5050009;28;20048;-71
2022/11/11 07:38:59;;;;;;;33.40;19.90;;;10.90;99.90;;;;;;5082739;28;20116;-69
2022/11/11 07:41:24;;;;;;;34.05;20.70;;;11.00;99.90;;;;;;5056547;28;20055;-69
2022/11/11 07:43:50;;;;;;;28.38;20.17;;;11.00;99.90;;;;;;5062094;28;20074;-70
2022/11/11 07:46:16;;;;;;;34.95;20.42;;;10.90;99.90;;;;;;5056110;28;20045;-69
2022/11/11 07:48:41;;;;;;;37.15;19.85;;;10.90;99.90;;;;;;5063171;28;20060;-69
2022/11/11 07:51:07;;;;;;;33.08;21.13;;;11.00;99.90;;;;;;5046979;28;20071;-69
2022/11/11 07:53:33;;;;;;;35.85;21.02;;;11.00;99.90;;;;;;5061004;28;20063;-74
2022/11/11 07:55:58;;;;;;;31.83;20.90;;;11.00;99.90;;;;;;5041677;28;20526;-69
2022/11/11 07:58:24;;;;;;;32.40;19.20;;;10.90;99.90;;;;;;5029528;28;20102;-69
2022/11/11 08:00:50;;;;;;;32.13;19.88;;;11.00;99.90;;;;;;5059977;28;20088;-70
2022/11/11 08:03:16;;;;;;;30.52;19.40;;;11.00;99.90;;;;;;5065039;28;20067;-66
2022/11/11 08:05:42;;;;;;;29.27;19.30;;;11.00;99.90;;;;;;5061341;28;20033;-69
2022/11/11 08:08:09;;;;;;;27.52;19.63;;;11.00;99.90;;;;;;5034556;28;20105;-69
2022/11/11 08:10:35;;;;;;;33.38;18.60;;;11.20;99.90;;;;;;5043505;28;20057;-68
2022/11/11 08:15:46;;;;;;;28.38;19.08;;;11.00;99.90;;;;;;5040103;28;20049;-67
2022/11/11 08:18:12;;;;;;;27.48;18.38;;;11.00;99.90;;;;;;5038548;28;20045;-67
2022/11/11 08:20:38;;;;;;;28.58;20.40;;;11.00;99.90;;;;;;5021839;28;20048;-68
2022/11/11 08:23:04;;;;;;;28.58;18.05;;;11.10;99.90;;;;;;5018710;28;20051;-69
2022/11/11 08:25:30;;;;;;;27.27;17.95;;;11.10;99.90;;;;;;5046775;28;20060;-67
2022/11/11 08:27:57;;;;;;;31.52;18.10;;;11.20;99.90;;;;;;5046371;28;20055;-68
2022/11/11 08:30:23;;;;;;;29.10;18.35;;;11.10;99.90;;;;;;5049780;28;20057;-68
2022/11/11 08:32:59;;;;;;;28.77;18.45;;;11.10;99.90;;;;;;5042026;28;20464;-68
2022/11/11 08:35:26;;;;;;;32.85;19.02;;;11.00;99.90;;;;;;5045581;28;20057;-67
2022/11/11 08:37:51;;;;;;;28.83;18.27;;;11.10;99.90;;;;;;5020683;28;20602;-67
2022/11/11 08:40:17;;;;;;;30.00;18.95;;;11.10;99.90;;;;;;5038886;28;20045;-67
2022/11/11 08:42:44;;;;;;;31.83;19.05;;;11.20;99.90;;;;;;5032108;28;20185;-67
2022/11/11 08:45:10;;;;;;;36.75;18.67;;;11.10;99.90;;;;;;5040751;28;20049;-69
2022/11/11 08:47:36;;;;;;;26.90;17.23;;;11.20;99.90;;;;;;5047063;28;20056;-69
2022/11/11 08:50:04;;;;;;;31.08;18.50;;;11.20;99.90;;;;;;5020803;28;20046;-70
2022/11/11 08:52:30;;;;;;;27.02;18.35;;;11.20;99.90;;;;;;5034325;28;20493;-70
2022/11/11 08:54:56;;;;;;;30.40;18.60;;;11.20;99.90;;;;;;5039182;28;20091;-70
2022/11/11 08:57:22;;;;;;;25.75;16.45;;;11.30;99.90;;;;;;5030028;28;20128;-70
2022/11/11 08:59:47;;;;;;;30.48;16.85;;;11.40;99.90;;;;;;5036477;28;20417;-70
2022/11/11 09:02:14;;;;;;;25.33;17.42;;;11.40;99.90;;;;;;5027930;28;20401;-69
2022/11/11 09:04:40;;;;;;;27.88;17.15;;;11.30;99.90;;;;;;5019457;28;20053;-69
2022/11/11 09:07:07;;;;;;;26.65;16.60;;;11.30;99.90;;;;;;4997109;28;20520;-70
2022/11/11 09:09:33;;;;;;;26.08;16.55;;;11.40;99.90;;;;;;5031294;28;20130;-70
2022/11/11 09:11:58;;;;;;;24.70;16.55;;;11.50;99.90;;;;;;5008872;28;20493;-70
2022/11/11 09:14:24;;;;;;;25.20;16.48;;;11.40;99.90;;;;;;5052511;28;20068;-70
2022/11/11 09:16:50;;;;;;;25.13;17.05;;;11.40;99.90;;;;;;5057017;28;20044;-70
2022/11/11 09:19:15;;;;;;;24.52;15.43;;;11.40;99.90;;;;;;5064795;28;20079;-70
2022/11/11 09:21:41;;;;;;;23.38;15.25;;;11.50;99.90;;;;;;5051565;28;20067;-70
2022/11/11 09:24:08;;;;;;;25.33;15.52;;;11.40;99.90;;;;;;5065166;28;20109;-70
2022/11/11 09:26:34;;;;;;;22.38;15.30;;;11.50;99.90;;;;;;5050167;28;20374;-70
2022/11/11 09:28:59;;;;;;;22.02;15.02;;;11.40;99.90;;;;;;5057935;28;20075;-70
2022/11/11 09:31:25;;;;;;;25.05;14.45;;;11.50;99.90;;;;;;5007741;28;20057;-70
2022/11/11 09:33:51;;;;;;;23.33;15.13;;;11.50;99.90;;;;;;5045279;28;20041;-71
2022/11/11 09:36:17;;;;;;;21.10;15.40;;;11.40;99.90;;;;;;5027120;28;20520;-70
2022/11/11 09:38:43;;;;;;;21.58;16.02;;;11.50;99.90;;;;;;5030426;28;20058;-70
2022/11/11 09:41:20;;;;;;;22.25;15.30;;;11.50;99.90;;;;;;5029856;28;20049;-70
2022/11/11 09:43:59;;;;;;;21.33;13.85;;;11.50;99.90;;;;;;5040724;28;20479;-70
2022/11/11 09:46:27;;;;;;;25.13;14.40;;;11.50;99.90;;;;;;5035544;28;20453;-70
2022/11/11 09:49:16;;;;;;;21.23;14.13;;;11.50;99.90;;;;;;5045078;28;20102;-70
2022/11/11 09:51:44;;;;;;;22.15;14.07;;;11.60;99.90;;;;;;5057672;28;20049;-70
2022/11/11 09:54:17;;;;;;;21.90;14.50;;;11.50;99.90;;;;;;5044001;28;20040;-70
2022/11/11 09:56:44;;;;;;;25.23;15.20;;;11.60;99.90;;;;;;5035780;28;20048;-72
2022/11/11 09:59:17;;;;;;;20.83;13.38;;;11.60;99.90;;;;;;5045147;28;20094;-69
2022/11/11 10:01:54;;;;;;;21.58;13.88;;;11.50;99.90;;;;;;5022353;28;20061;-69
2022/11/11 10:04:33;;;;;;;19.92;14.90;;;11.70;99.90;;;;;;5038252;28;20566;-70
2022/11/11 10:07:19;;;;;;;22.45;14.50;;;11.70;99.90;;;;;;5019220;28;20053;-69
2022/11/11 10:09:57;;;;;;;23.67;14.30;;;11.70;99.90;;;;;;5023541;28;20056;-70
2022/11/11 10:12:30;;;;;;;21.02;13.10;;;11.80;99.90;;;;;;5046785;28;20149;-76
2022/11/11 10:14:56;;;;;;;20.08;13.98;;;11.80;99.90;;;;;;5043253;28;20050;-69
2022/11/11 10:17:36;;;;;;;19.42;13.50;;;11.80;99.90;;;;;;5033452;28;20092;-69
2022/11/11 10:20:28;;;;;;;20.15;14.00;;;11.90;99.90;;;;;;5042548;28;20497;-65
2022/11/11 10:23:03;;;;;;;19.25;13.35;;;11.80;99.90;;;;;;5043575;28;20650;-67
2022/11/11 10:25:29;;;;;;;21.45;14.43;;;11.70;99.90;;;;;;5018168;28;20049;-67
2022/11/11 10:27:58;;;;;;;23.40;13.98;;;11.90;99.90;;;;;;5022883;28;20084;-67
2022/11/11 10:30:32;;;;;;;19.60;13.95;;;11.80;99.90;;;;;;5047263;28;20136;-67
2022/11/11 10:33:15;;;;;;;18.35;14.43;;;11.80;99.90;;;;;;5036505;28;20056;-67
2022/11/11 10:35:41;;;;;;;24.85;14.32;;;11.80;99.90;;;;;;5042910;28;20072;-67
2022/11/11 10:38:10;;;;;;;26.25;15.45;;;11.90;99.90;;;;;;5034582;28;20117;-67
2022/11/11 10:40:56;;;;;;;20.15;14.32;;;11.90;99.90;;;;;;5050656;28;20350;-67
2022/11/11 10:43:29;;;;;;;20.00;13.63;;;11.90;99.90;;;;;;5031462;28;20048;-67
2022/11/11 10:46:26;;;;;;;21.42;14.40;;;11.90;99.90;;;;;;5033645;28;20045;-67
2022/11/11 10:49:06;;;;;;;21.05;14.02;;;11.90;99.90;;;;;;4979907;28;20130;-67
2022/11/11 10:51:41;;;;;;;20.40;14.30;;;11.90;99.90;;;;;;4990388;28;20050;-67
2022/11/11 10:54:22;;;;;;;25.98;16.02;;;11.90;99.90;;;;;;4964655;28;20073;-69
2022/11/11 10:56:59;;;;;;;23.67;16.52;;;11.90;99.90;;;;;;5017945;28;20061;-67
2022/11/11 10:59:40;;;;;;;26.48;18.23;;;12.00;99.90;;;;;;4993147;28;20065;-68
2022/11/11 11:02:21;;;;;;;24.08;16.90;;;12.00;99.90;;;;;;5000495;28;20069;-71
2022/11/11 11:05:02;;;;;;;27.58;18.42;;;11.90;99.90;;;;;;4985947;28;20120;-69
2022/11/11 11:07:37;;;;;;;27.35;17.20;;;11.90;99.90;;;;;;4959965;28;20046;-71
2022/11/11 11:10:12;;;;;;;23.92;17.83;;;11.90;99.90;;;;;;5016441;28;20174;-72
2022/11/11 11:12:45;;;;;;;25.10;17.83;;;11.80;99.90;;;;;;4992459;28;20148;-72
2022/11/11 11:15:17;;;;;;;24.45;18.25;;;11.90;99.90;;;;;;4998143;28;20046;-72
2022/11/11 11:18:10;;;;;;;23.70;16.80;;;11.90;99.90;;;;;;4990403;28;20074;-72
2022/11/11 11:20:35;;;;;;;27.88;18.42;;;11.80;99.90;;;;;;5004109;28;20176;-70
2022/11/11 11:23:01;;;;;;;23.95;17.42;;;11.80;99.90;;;;;;4992021;28;20108;-78
2022/11/11 11:25:32;;;;;;;27.00;18.40;;;11.80;99.90;;;;;;5015895;28;20285;-76
2022/11/11 11:28:12;;;;;;;24.85;17.73;;;11.80;99.90;;;;;;5037865;28;20052;-78
2022/11/11 11:30:38;;;;;;;;;;;11.80;99.90;;;;;;5050838;28;20519;-77
2022/11/11 11:33:08;;;;;;;29.70;18.25;;;11.80;99.90;;;;;;5040046;28;20379;-74
2022/11/11 11:35:43;;;;;;;25.70;17.63;;;11.80;99.90;;;;;;5058837;28;20052;-69
2022/11/11 11:38:11;;;;;;;26.83;17.70;;;11.90;99.90;;;;;;5042701;28;20070;-68
2022/11/11 11:40:56;;;;;;;23.50;17.85;;;11.80;99.90;;;;;;5047875;28;20072;-68
2022/11/11 11:43:38;;;;;;;23.00;17.15;;;11.80;99.90;;;;;;5036062;28;20045;-68
2022/11/11 11:46:19;;;;;;;23.83;16.33;;;11.70;99.90;;;;;;5023062;28;20049;-69
2022/11/11 11:48:56;;;;;;;24.30;16.85;;;11.80;99.90;;;;;;5058868;28;20064;-68
2022/11/11 11:51:49;;;;;;;22.98;16.27;;;11.80;99.90;;;;;;5058969;28;20044;-68
2022/11/11 11:54:30;;;;;;;23.13;16.52;;;11.70;99.90;;;;;;5053910;28;20048;-68
2022/11/11 11:57:01;;;;;;;25.77;17.50;;;11.80;99.90;;;;;;5040646;28;20120;-68
2022/11/11 11:59:37;;;;;;;23.15;15.70;;;11.80;99.90;;;;;;5053667;28;20566;-68
2022/11/11 12:02:17;;;;;;;21.35;15.60;;;11.90;99.90;;;;;;5036792;28;20480;-69
2022/11/11 12:04:52;;;;;;;21.55;15.20;;;11.90;99.90;;;;;;5038795;28;20141;-68
2022/11/11 12:07:40;;;;;;;19.80;14.55;;;12.00;99.90;;;;;;5033033;28;20084;-69
2022/11/11 12:10:25;;;;;;;20.48;15.30;;;12.10;99.90;;;;;;5043859;28;20080;-69
2022/11/11 12:13:19;;;;;;;20.58;14.93;;;12.20;99.90;;;;;;5039909;28;20037;-70
2022/11/11 12:16:17;;;;;;;19.90;14.68;;;12.30;99.90;;;;;;5034540;28;20308;-69
2022/11/11 12:19:20;;;;;;;22.63;16.42;;;12.30;99.90;;;;;;5053651;28;20063;-69
2022/11/11 12:22:07;;;;;;;22.35;15.65;;;12.40;99.90;;;;;;5051560;28;20053;-70
2022/11/11 12:24:38;;;;;;;20.67;15.23;;;12.50;99.90;;;;;;5039607;28;20049;-70
2022/11/11 12:27:24;;;;;;;19.48;15.52;;;12.60;99.90;;;;;;5037541;28;20056;-71
2022/11/11 12:29:59;;;;;;;19.80;15.43;;;12.60;99.90;;;;;;5054167;28;20137;-70
2022/11/11 12:32:37;;;;;;;19.92;14.02;;;12.70;99.90;;;;;;5052528;28;20056;-66
2022/11/11 12:35:17;;;;;;;19.05;14.77;;;12.70;99.90;;;;;;5048180;28;20046;-66
2022/11/11 12:38:19;;;;;;;18.02;13.95;;;12.80;99.90;;;;;;5032943;28;20052;-68
2022/11/11 12:40:51;;;;;;;18.30;14.05;;;12.90;99.90;;;;;;5052969;28;20049;-67
2022/11/11 12:43:25;;;;;;;20.02;14.77;;;12.90;99.90;;;;;;5035534;28;20364;-71
2022/11/11 12:46:12;;;;;;;17.15;13.73;;;13.00;99.90;;;;;;5062620;28;20045;-67
2022/11/11 12:48:51;;;;;;;19.38;15.40;;;13.10;99.90;;;;;;5068323;28;20614;-66
2022/11/11 12:51:38;;;;;;;18.65;13.55;;;13.10;99.90;;;;;;5041881;28;20060;-66
2022/11/11 12:54:19;;;;;;;18.63;13.48;;;13.20;99.90;;;;;;5047472;28;20055;-66
2022/11/11 12:57:25;;;;;;;20.05;13.60;;;13.10;99.90;;;;;;5045849;28;20037;-67
2022/11/11 13:00:13;;;;;;;18.27;12.65;;;13.20;99.90;;;;;;5004977;28;20096;-66
2022/11/11 13:02:42;;;;;;;16.27;11.95;;;13.30;99.90;;;;;;5002504;28;20105;-69
2022/11/11 13:05:08;;;;;;;15.45;11.65;;;13.40;99.90;;;;;;5004701;28;20053;-68
2022/11/11 13:07:55;;;;;;;15.85;11.48;;;13.40;99.90;;;;;;4988530;28;20205;-68
2022/11/11 13:10:54;;;;;;;16.73;12.07;;;13.30;99.90;;;;;;4951045;28;20049;-69
2022/11/11 13:13:47;;;;;;;14.65;11.85;;;13.30;99.90;;;;;;4968970;28;20054;-69
2022/11/11 13:16:16;;;;;;;19.00;12.50;;;13.10;99.90;;;;;;4988256;28;20060;-69
2022/11/11 13:18:53;;;;;;;14.55;11.70;;;13.10;99.90;;;;;;4997185;28;20046;-68
2022/11/11 13:21:44;;;;;;;14.82;11.40;;;13.20;99.90;;;;;;5002962;28;20561;-68
2022/11/11 13:24:12;;;;;;;16.85;11.68;;;13.10;99.90;;;;;;4981410;28;20081;-69
2022/11/11 13:26:47;;;;;;;14.55;11.73;;;13.00;99.90;;;;;;4993596;28;20047;-69
2022/11/11 13:29:50;;;;;;;15.90;12.05;;;13.10;99.90;;;;;;4999526;28;20118;-69
2022/11/11 13:32:22;;;;;;;16.50;11.68;;;13.10;99.90;;;;;;5013199;28;20057;-68
2022/11/11 13:34:49;;;;;;;17.65;11.90;;;13.10;99.90;;;;;;4990842;28;20046;-69
2022/11/11 13:37:31;;;;;;;14.27;11.50;;;12.90;99.90;;;;;;5040457;28;20123;-69
2022/11/11 13:40:08;;;;;;;15.52;11.50;;;12.90;99.90;;;;;;5040722;28;20051;-69
2022/11/11 13:42:39;;;;;;;16.90;12.05;;;12.80;99.90;;;;;;5042328;28;20107;-69
2022/11/11 13:45:07;;;;;;;16.98;12.23;;;12.80;99.90;;;;;;5072952;28;20044;-69
2022/11/11 13:47:36;;;;;;;16.80;11.30;;;12.70;99.90;;;;;;5045042;28;20053;-69
2022/11/11 13:50:05;;;;;;;14.77;11.90;;;12.80;99.90;;;;;;5059572;28;20043;-69
2022/11/11 13:52:44;;;;;;;16.67;12.10;;;12.80;99.90;;;;;;5046288;28;20136;-69
2022/11/11 13:55:35;;;;;;;14.63;11.05;;;12.80;99.90;;;;;;5073992;28;20059;-68
2022/11/11 13:58:03;;;;;;;17.10;11.45;;;12.80;99.90;;;;;;5040461;28;20060;-71
2022/11/11 14:00:34;;;;;;;16.80;11.30;;;12.80;99.90;;;;;;5055810;28;20041;-68
2022/11/11 14:03:12;;;;;;;13.95;10.60;;;12.90;99.90;;;;;;5041507;28;20079;-72
2022/11/11 14:05:38;;;;;;;15.80;11.07;;;12.90;99.90;;;;;;5073385;28;20073;-69
2022/11/11 14:08:06;;;;;;;17.15;10.90;;;12.90;99.90;;;;;;5021850;28;20048;-69